KLEB/LEB METAR and TAF weather

Enter ICAO airport designator
Station Type Date Time Source
KLEB METAR 2020/08/10 17:53 UTC NOAA

KLEB 101753Z VRB05KT 10SM FEW050 32/18 A2997 RMK AO2 SLP137 T03170183 10317 20206 56014


Station Type Date Time Source
KLEB Decoded METAR 2020/08/10 17:53 UTC NOAA

LEBANON MUNICIPAL AIRPORT, NH, United States (KLEB) 43-38N 072-18W 171M
Aug 10, 2020 - 01:53 PM EDT / 2020.08.10 1753 UTC
Wind: Variable at 6 MPH (5 KT):0
Visibility: 10 mile(s):0
Sky conditions: mostly clear
Temperature: 89.1 F (31.7 C)
Dew Point: 64.9 F (18.3 C)
Relative Humidity: 44%
Pressure (altimeter): 29.97 in. Hg (1014 hPa)
Pressure tendency: 0.04 inches (1.4 hPa) lower than three hours ago
ob: KLEB 101753Z VRB05KT 10SM FEW050 32/18 A2997 RMK AO2 SLP137 T03170183 10317 20206 56014
cycle: 18

Station Type Date Time Source
KLEB TAF 2020/08/10 18:36 UTC NOAA

TAF KLEB 101735Z 1018/1118 35004KT P6SM SCT050
FM110000 33002KT P6SM SCT250
FM110900 00000KT 1SM BR OVC001
FM111300 20003KT P6SM FEW250

Example: see airport list